createdAt,value
2022-08-24T00:01:57.350Z,3.42
2022-08-24T00:04:25.991Z,3.83
2022-08-24T00:06:54.379Z,3.50
2022-08-24T00:09:22.785Z,3.70
2022-08-24T00:11:51.168Z,3.90
2022-08-24T00:14:19.799Z,3.28
2022-08-24T00:16:48.365Z,3.63
2022-08-24T00:19:17.393Z,3.38
2022-08-24T00:21:45.803Z,3.85
2022-08-24T00:24:14.891Z,3.45
2022-08-24T00:26:43.251Z,3.90
2022-08-24T00:29:11.539Z,3.65
2022-08-24T00:31:40.055Z,3.60
2022-08-24T00:34:08.641Z,3.90
2022-08-24T00:36:37.317Z,3.70
2022-08-24T00:39:06.359Z,4.22
2022-08-24T00:41:35.322Z,3.95
2022-08-24T00:44:04.777Z,4.05
2022-08-24T00:46:49.012Z,4.70
2022-08-24T00:49:35.420Z,5.05
2022-08-24T00:52:20.354Z,4.65
2022-08-24T00:54:56.074Z,4.78
2022-08-24T00:57:27.502Z,4.70
2022-08-24T01:00:01.142Z,4.60
2022-08-24T01:02:34.176Z,3.35
2022-08-24T01:05:08.538Z,3.95
2022-08-24T01:07:37.582Z,4.57
2022-08-24T01:10:11.358Z,4.93
2022-08-24T01:12:42.327Z,4.57
2022-08-24T01:15:26.833Z,5.03
2022-08-24T01:18:13.619Z,5.28
2022-08-24T01:21:02.849Z,8.98
2022-08-24T01:23:36.241Z,11.77
2022-08-24T01:26:07.013Z,13.02
2022-08-24T01:28:37.074Z,15.02
2022-08-24T01:31:05.579Z,18.10
2022-08-24T01:33:34.000Z,15.63
2022-08-24T01:36:19.015Z,8.45
2022-08-24T01:38:48.013Z,6.82
2022-08-24T01:41:16.684Z,7.75
2022-08-24T01:43:45.043Z,6.78
2022-08-24T01:46:13.394Z,6.18
2022-08-24T01:48:41.825Z,6.35
2022-08-24T01:51:10.258Z,7.65
2022-08-24T01:53:38.745Z,18.38
2022-08-24T01:56:07.299Z,12.10
2022-08-24T01:58:36.374Z,13.18
2022-08-24T02:01:04.945Z,16.45
2022-08-24T02:03:33.247Z,19.45
2022-08-24T02:06:01.803Z,13.88
2022-08-24T02:08:32.333Z,8.88
2022-08-24T02:11:00.601Z,8.45
2022-08-24T02:13:28.990Z,12.15
2022-08-24T02:15:58.225Z,17.83
2022-08-24T02:18:26.759Z,27.58
2022-08-24T02:20:55.121Z,22.02
2022-08-24T02:23:23.471Z,14.00
2022-08-24T02:25:52.460Z,9.40
2022-08-24T02:28:20.945Z,6.88
2022-08-24T02:30:49.579Z,7.07
2022-08-24T02:33:18.788Z,7.85
2022-08-24T02:35:47.320Z,9.38
2022-08-24T02:38:15.778Z,8.38
2022-08-24T02:40:44.155Z,7.55
2022-08-24T02:43:12.760Z,7.05
2022-08-24T02:45:42.059Z,7.43
2022-08-24T02:48:10.931Z,7.00
2022-08-24T02:50:44.123Z,6.90
2022-08-24T02:53:14.354Z,7.15
2022-08-24T02:55:43.415Z,6.27
2022-08-24T02:58:12.572Z,6.88
2022-08-24T03:00:41.971Z,6.45
2022-08-24T03:03:11.635Z,5.78
2022-08-24T03:05:40.355Z,6.03
2022-08-24T03:08:09.311Z,5.72
2022-08-24T03:10:38.121Z,5.72
2022-08-24T03:13:08.040Z,5.68
2022-08-24T03:15:36.640Z,5.63
2022-08-24T03:18:05.464Z,6.15
2022-08-24T03:20:33.850Z,6.10
2022-08-24T03:23:02.370Z,6.07
2022-08-24T03:25:31.015Z,5.60
2022-08-24T03:27:59.226Z,5.60
2022-08-24T03:30:27.690Z,5.97
2022-08-24T03:32:57.194Z,5.90
2022-08-24T03:35:25.530Z,5.53
2022-08-24T03:37:55.013Z,5.05
2022-08-24T03:40:24.997Z,5.35
2022-08-24T03:42:57.089Z,6.22
2022-08-24T03:45:25.679Z,5.53
2022-08-24T03:47:54.270Z,5.97
2022-08-24T03:50:22.850Z,5.85
2022-08-24T03:52:51.769Z,5.82
2022-08-24T03:55:20.687Z,6.15
2022-08-24T03:57:49.221Z,6.43
2022-08-24T04:00:17.812Z,6.17
2022-08-24T04:02:54.986Z,5.80
2022-08-24T04:05:25.860Z,6.10
2022-08-24T04:07:54.856Z,6.25
2022-08-24T04:10:23.268Z,6.38
2022-08-24T04:12:51.653Z,5.97
2022-08-24T04:15:25.494Z,6.35
2022-08-24T04:17:53.771Z,6.30
2022-08-24T04:20:22.341Z,6.07
2022-08-24T04:22:52.497Z,5.70
2022-08-24T04:25:25.108Z,6.28
2022-08-24T04:27:53.847Z,6.15
2022-08-24T04:30:23.838Z,6.40
2022-08-24T04:33:10.561Z,5.97
2022-08-24T04:35:45.619Z,6.40
2022-08-24T04:38:14.429Z,6.70
2022-08-24T04:40:49.288Z,6.28
2022-08-24T04:43:19.973Z,6.38
2022-08-24T04:45:50.360Z,5.60
2022-08-24T04:48:19.392Z,6.57
2022-08-24T04:50:48.236Z,6.53
2022-08-24T04:53:16.727Z,5.80
2022-08-24T04:55:52.864Z,7.38
2022-08-24T04:58:21.292Z,6.47
2022-08-24T05:00:49.563Z,5.90
2022-08-24T05:03:18.006Z,6.13
2022-08-24T05:05:49.465Z,5.85
2022-08-24T05:08:19.561Z,6.40
2022-08-24T05:10:48.386Z,6.65
2022-08-24T05:13:16.849Z,6.93
2022-08-24T05:15:46.990Z,6.28
2022-08-24T05:18:16.420Z,5.85
2022-08-24T05:20:46.561Z,6.10
2022-08-24T05:23:15.971Z,5.60
2022-08-24T05:25:44.308Z,5.40
2022-08-24T05:28:13.190Z,6.07
2022-08-24T05:30:42.873Z,6.10
2022-08-24T05:33:11.610Z,6.57
2022-08-24T05:35:43.731Z,5.72
2022-08-24T05:38:13.790Z,6.03
2022-08-24T05:40:43.529Z,5.80
2022-08-24T05:43:12.496Z,6.68
2022-08-24T05:45:43.126Z,6.40
2022-08-24T05:48:12.529Z,6.20
2022-08-24T05:51:10.368Z,6.57
2022-08-24T05:53:48.370Z,5.60
2022-08-24T05:56:17.516Z,6.15
2022-08-24T05:58:46.091Z,5.68
2022-08-24T06:01:21.205Z,6.07
2022-08-24T06:03:50.146Z,5.78
2022-08-24T06:06:20.331Z,6.13
2022-08-24T06:08:50.141Z,6.55
2022-08-24T06:11:30.209Z,5.93
2022-08-24T06:14:12.166Z,5.78
2022-08-24T06:16:52.826Z,6.00
2022-08-24T06:19:22.608Z,6.28
2022-08-24T06:21:52.378Z,6.82
2022-08-24T06:24:41.819Z,6.43
2022-08-24T06:27:22.608Z,5.95
2022-08-24T06:29:55.434Z,6.18
2022-08-24T06:32:47.268Z,6.10
2022-08-24T06:35:33.726Z,5.90
2022-08-24T06:38:02.791Z,5.82
2022-08-24T06:40:31.230Z,5.82
2022-08-24T06:43:03.186Z,6.72
2022-08-24T06:45:48.841Z,5.93
2022-08-24T06:48:19.724Z,5.65
2022-08-24T06:50:49.282Z,5.07
2022-08-24T06:53:17.876Z,5.32
2022-08-24T06:55:53.725Z,5.65
2022-08-24T06:58:23.594Z,4.90
2022-08-24T07:00:52.249Z,5.57
2022-08-24T07:03:23.888Z,5.55
2022-08-24T07:06:13.902Z,5.13
2022-08-24T07:08:43.444Z,4.95
2022-08-24T07:11:15.182Z,5.00
2022-08-24T07:13:45.248Z,5.70
2022-08-24T07:16:15.607Z,5.22
2022-08-24T07:18:49.963Z,5.97
2022-08-24T07:21:21.462Z,5.45
2022-08-24T07:23:55.578Z,6.07
2022-08-24T07:26:24.835Z,5.00
2022-08-24T07:29:05.261Z,5.40
2022-08-24T07:31:40.634Z,5.05
2022-08-24T07:34:18.199Z,5.25
2022-08-24T07:36:46.869Z,5.35
2022-08-24T07:39:15.703Z,4.43
2022-08-24T07:42:11.640Z,4.78
2022-08-24T07:44:33.461Z,4.75
2022-08-24T07:47:20.755Z,4.72
2022-08-24T07:49:51.833Z,4.72
2022-08-24T07:52:21.405Z,4.40
2022-08-24T07:54:50.073Z,3.83
2022-08-24T07:57:18.967Z,3.92
2022-08-24T07:59:47.940Z,4.35
2022-08-24T08:02:17.645Z,3.83
2022-08-24T08:04:50.463Z,4.15
2022-08-24T08:07:20.601Z,4.07
2022-08-24T08:09:51.144Z,4.10
2022-08-24T08:12:19.835Z,4.20
2022-08-24T08:14:58.123Z,3.63
2022-08-24T08:17:26.705Z,3.85
2022-08-24T08:19:55.260Z,4.10
2022-08-24T08:22:44.020Z,4.07
2022-08-24T08:25:32.403Z,4.38
2022-08-24T08:28:13.047Z,4.03
2022-08-24T08:30:54.008Z,3.90
2022-08-24T08:33:22.721Z,3.83
2022-08-24T08:36:03.449Z,3.75
2022-08-24T08:38:32.175Z,3.42
2022-08-24T08:41:24.497Z,3.83
2022-08-24T08:44:41.268Z,3.58
2022-08-24T08:47:25.368Z,4.03
2022-08-24T08:50:14.728Z,3.80
2022-08-24T08:53:05.278Z,3.53
2022-08-24T08:55:41.377Z,3.88
2022-08-24T08:58:46.780Z,3.58
2022-08-24T09:01:54.486Z,4.07
2022-08-24T09:04:36.782Z,3.42
2022-08-24T09:07:26.549Z,3.33
2022-08-24T09:10:23.937Z,3.50
2022-08-24T09:13:11.650Z,3.55
2022-08-24T09:16:33.076Z,3.65
2022-08-24T09:20:00.460Z,3.72
2022-08-24T09:22:29.760Z,2.88
2022-08-24T09:25:26.487Z,3.67
2022-08-24T09:28:46.789Z,3.75
2022-08-24T09:31:29.174Z,4.25
2022-08-24T09:34:20.336Z,6.05
2022-08-24T09:36:53.532Z,4.25
2022-08-24T09:39:33.621Z,3.38
2022-08-24T09:42:32.453Z,3.95
2022-08-24T09:45:19.423Z,3.90
2022-08-24T09:48:00.609Z,4.07
2022-08-24T09:50:47.611Z,3.35
2022-08-24T09:53:33.916Z,3.70
2022-08-24T09:56:25.476Z,3.47
2022-08-24T09:59:19.786Z,3.65
2022-08-24T10:02:18.744Z,3.38
2022-08-24T10:05:05.954Z,3.85
2022-08-24T10:07:59.274Z,3.75
2022-08-24T10:10:38.594Z,3.78
2022-08-24T10:13:18.372Z,3.55
2022-08-24T10:16:08.964Z,3.38
2022-08-24T10:18:58.867Z,3.90
2022-08-24T10:21:55.423Z,3.88
2022-08-24T10:24:45.388Z,3.70
2022-08-24T10:27:13.626Z,4.13
2022-08-24T10:30:03.630Z,3.55
2022-08-24T10:32:53.610Z,3.70
2022-08-24T10:36:08.329Z,3.60
2022-08-24T10:39:24.214Z,3.20
2022-08-24T10:41:58.918Z,4.00
2022-08-24T10:44:44.241Z,3.47
2022-08-24T10:47:28.841Z,3.88
2022-08-24T10:50:32.391Z,3.58
2022-08-24T10:53:17.566Z,4.00
2022-08-24T10:55:47.412Z,4.30
2022-08-24T10:58:34.488Z,4.82
2022-08-24T11:01:23.668Z,3.97
2022-08-24T11:04:00.292Z,3.90
2022-08-24T11:06:40.826Z,4.22
2022-08-24T11:09:18.651Z,4.22
2022-08-24T11:11:52.173Z,4.60
2022-08-24T11:14:26.241Z,4.53
2022-08-24T11:16:57.922Z,4.30
2022-08-24T11:19:26.595Z,4.47
2022-08-24T11:21:58.123Z,4.85
2022-08-24T11:24:47.085Z,4.80
2022-08-24T11:27:18.140Z,4.32
2022-08-24T11:29:52.473Z,4.10
2022-08-24T11:32:29.603Z,4.28
2022-08-24T11:35:16.231Z,4.53
2022-08-24T11:37:45.361Z,4.50
2022-08-24T11:40:14.025Z,4.35
2022-08-24T11:43:06.109Z,4.68
2022-08-24T11:45:49.222Z,5.03
2022-08-24T11:48:29.860Z,4.50
2022-08-24T11:51:27.475Z,4.88
2022-08-24T11:54:27.422Z,5.28
2022-08-24T11:56:55.743Z,5.20
2022-08-24T11:59:33.091Z,5.47
2022-08-24T12:02:05.748Z,6.15
2022-08-24T12:04:44.093Z,6.18
2022-08-24T12:07:35.011Z,5.43
2022-08-24T12:10:09.317Z,5.38
2022-08-24T12:12:59.258Z,5.35
2022-08-24T12:15:43.819Z,5.60
2022-08-24T12:18:39.567Z,6.47
2022-08-24T12:21:12.704Z,5.90
2022-08-24T12:23:46.492Z,5.13
2022-08-24T12:26:29.990Z,5.55
2022-08-24T12:29:06.418Z,5.55
2022-08-24T12:31:51.423Z,5.85
2022-08-24T12:34:37.788Z,5.45
2022-08-24T12:37:16.491Z,6.28
2022-08-24T12:39:55.361Z,5.40
2022-08-24T12:42:30.029Z,5.50
2022-08-24T12:45:02.094Z,5.40
2022-08-24T12:47:42.029Z,5.65
2022-08-24T12:50:24.984Z,5.78
2022-08-24T12:53:09.019Z,5.55
2022-08-24T12:55:53.458Z,5.47
2022-08-24T12:58:54.379Z,5.88
2022-08-24T13:01:25.630Z,5.30
2022-08-24T13:04:07.801Z,5.15
2022-08-24T13:07:00.517Z,5.05
2022-08-24T13:09:47.906Z,4.80
2022-08-24T13:12:47.932Z,5.45
2022-08-24T13:15:28.826Z,5.10
2022-08-24T13:18:10.134Z,5.63
2022-08-24T13:20:46.001Z,5.30
2022-08-24T13:23:16.836Z,5.78
2022-08-24T13:25:48.419Z,5.20
2022-08-24T13:28:22.844Z,5.47
2022-08-24T13:30:54.235Z,5.40
2022-08-24T13:33:58.213Z,5.68
2022-08-24T13:36:45.151Z,5.68
2022-08-24T13:39:32.284Z,6.25
2022-08-24T13:42:21.923Z,6.13
2022-08-24T13:44:53.280Z,6.13
2022-08-24T13:47:52.808Z,6.45
2022-08-24T13:50:34.625Z,6.43
2022-08-24T13:53:42.149Z,5.45
2022-08-24T13:56:33.094Z,5.13
2022-08-24T13:59:28.035Z,5.82
2022-08-24T14:01:59.652Z,5.85
2022-08-24T14:04:55.430Z,6.80
2022-08-24T14:08:10.707Z,5.72
2022-08-24T14:10:45.011Z,6.10
2022-08-24T14:13:32.567Z,6.10
2022-08-24T14:16:30.244Z,6.45
2022-08-24T14:19:23.299Z,5.93
2022-08-24T14:22:10.254Z,6.03
2022-08-24T14:24:48.110Z,5.93
2022-08-24T14:27:46.744Z,6.43
2022-08-24T14:30:17.850Z,5.95
2022-08-24T14:33:01.150Z,6.45
2022-08-24T14:35:40.325Z,6.35
2022-08-24T14:38:21.556Z,6.38
2022-08-24T14:41:18.678Z,6.80
2022-08-24T14:44:31.305Z,5.90
2022-08-24T14:47:15.203Z,6.80
2022-08-24T14:50:08.012Z,6.13
2022-08-24T14:52:39.311Z,5.95
2022-08-24T14:55:26.223Z,6.60
2022-08-24T14:58:23.766Z,5.75
2022-08-24T15:01:24.692Z,7.03
2022-08-24T15:04:30.778Z,5.97
2022-08-24T15:07:36.967Z,5.90
2022-08-24T15:10:14.473Z,5.97
2022-08-24T15:13:02.819Z,5.70
2022-08-24T15:15:55.389Z,5.32
2022-08-24T15:18:40.789Z,5.97
2022-08-24T15:21:59.683Z,6.00
2022-08-24T15:25:00.224Z,6.32
2022-08-24T15:27:50.427Z,5.72
2022-08-24T15:30:30.950Z,6.03
2022-08-24T15:33:08.146Z,6.30
2022-08-24T15:35:44.395Z,5.97
2022-08-24T15:38:31.331Z,6.03
2022-08-24T15:41:12.537Z,6.07
2022-08-24T15:44:00.051Z,5.55
2022-08-24T15:46:43.409Z,6.15
2022-08-24T15:49:19.109Z,5.07
2022-08-24T15:51:53.613Z,5.68
2022-08-24T15:54:30.383Z,6.00
2022-08-24T15:57:24.571Z,6.22
2022-08-24T15:59:54.936Z,5.00
2022-08-24T16:02:31.187Z,5.55
2022-08-24T16:05:28.083Z,6.18
2022-08-24T16:08:02.558Z,5.25
2022-08-24T16:10:43.026Z,6.13
2022-08-24T16:13:17.981Z,6.20
2022-08-24T16:16:05.477Z,6.07
2022-08-24T16:18:49.860Z,5.43
2022-08-24T16:21:39.566Z,6.10
2022-08-24T16:24:21.543Z,5.35
2022-08-24T16:26:50.600Z,6.10
2022-08-24T16:29:37.899Z,6.32
2022-08-24T16:32:22.081Z,5.38
2022-08-24T16:35:11.168Z,5.38
2022-08-24T16:37:40.210Z,5.70
2022-08-24T16:40:09.323Z,5.47
2022-08-24T16:42:38.176Z,5.75
2022-08-24T16:45:10.425Z,5.15
2022-08-24T16:47:39.684Z,5.50
2022-08-24T16:50:08.390Z,5.18
2022-08-24T16:52:36.841Z,4.90
2022-08-24T16:55:05.831Z,5.78
2022-08-24T16:57:37.840Z,5.28
2022-08-24T17:00:11.271Z,6.07
2022-08-24T17:02:40.707Z,5.18
2022-08-24T17:05:09.426Z,5.00
2022-08-24T17:07:37.879Z,5.75
2022-08-24T17:10:07.722Z,5.47
2022-08-24T17:12:37.358Z,5.38
2022-08-24T17:15:06.861Z,6.00
2022-08-24T17:17:38.518Z,5.80
2022-08-24T17:20:09.786Z,6.10
2022-08-24T17:22:38.594Z,5.88
2022-08-24T17:25:08.168Z,5.10
2022-08-24T17:27:36.587Z,5.55
2022-08-24T17:30:05.569Z,5.15
2022-08-24T17:32:34.701Z,5.93
2022-08-24T17:35:05.407Z,5.80
2022-08-24T17:37:37.288Z,5.45
2022-08-24T17:40:06.127Z,5.40
2022-08-24T17:42:50.085Z,5.75
2022-08-24T17:45:23.170Z,6.03
2022-08-24T17:47:54.982Z,6.20
2022-08-24T17:50:24.810Z,6.00
2022-08-24T17:53:00.490Z,5.18
2022-08-24T17:55:29.241Z,6.55
2022-08-24T17:57:58.957Z,8.10
2022-08-24T18:00:27.465Z,6.95
2022-08-24T18:02:55.922Z,7.20
2022-08-24T18:05:27.156Z,6.18
2022-08-24T18:07:58.328Z,5.95
2022-08-24T18:10:28.948Z,6.72
2022-08-24T18:12:59.988Z,6.97
2022-08-24T18:15:35.946Z,6.50
2022-08-24T18:18:09.623Z,5.50
2022-08-24T18:20:52.036Z,6.20
2022-08-24T18:23:24.572Z,6.18
2022-08-24T18:25:57.968Z,6.03
2022-08-24T18:28:31.541Z,5.50
2022-08-24T18:31:13.656Z,7.13
2022-08-24T18:33:49.421Z,7.07
2022-08-24T18:36:30.067Z,7.72
2022-08-24T18:39:06.520Z,6.55
2022-08-24T18:41:41.102Z,6.95
2022-08-24T18:44:15.435Z,6.68
2022-08-24T18:46:45.240Z,6.55
2022-08-24T18:49:17.432Z,7.05
2022-08-24T18:51:54.105Z,7.65
2022-08-24T18:54:24.681Z,7.50
2022-08-24T18:56:53.666Z,7.78
2022-08-24T18:59:22.998Z,6.93
2022-08-24T19:02:15.705Z,7.90
2022-08-24T19:04:47.746Z,6.97
2022-08-24T19:07:17.015Z,6.88
2022-08-24T19:09:47.995Z,6.90
2022-08-24T19:12:16.412Z,6.63
2022-08-24T19:14:50.886Z,7.38
2022-08-24T19:17:19.472Z,6.80
2022-08-24T19:19:48.153Z,6.70
2022-08-24T19:22:17.720Z,6.70
2022-08-24T19:24:50.470Z,7.47
2022-08-24T19:27:22.128Z,6.85
2022-08-24T19:29:55.804Z,7.15
2022-08-24T19:32:27.950Z,7.30
2022-08-24T19:35:00.104Z,7.05
2022-08-24T19:37:29.341Z,6.72
2022-08-24T19:39:58.943Z,6.75
2022-08-24T19:42:29.993Z,7.72
2022-08-24T19:45:25.472Z,7.05
2022-08-24T19:47:53.988Z,6.53
2022-08-24T19:50:28.316Z,6.78
2022-08-24T19:53:01.475Z,7.53
2022-08-24T19:55:30.332Z,6.75
2022-08-24T19:58:10.072Z,7.07
2022-08-24T20:00:48.327Z,6.72
2022-08-24T20:03:21.312Z,7.72
2022-08-24T20:05:49.643Z,6.90
2022-08-24T20:08:21.100Z,7.40
2022-08-24T20:10:58.974Z,7.38
2022-08-24T20:13:28.922Z,6.80
2022-08-24T20:15:57.713Z,6.95
2022-08-24T20:18:56.435Z,7.28
2022-08-24T20:21:30.078Z,6.88
2022-08-24T20:24:01.014Z,6.97
2022-08-24T20:26:32.365Z,8.23
2022-08-24T20:29:00.709Z,7.68
2022-08-24T20:31:29.416Z,7.05
2022-08-24T20:33:59.591Z,6.80
2022-08-24T20:36:34.190Z,7.20
2022-08-24T20:39:03.232Z,6.88
2022-08-24T20:41:32.687Z,6.97
2022-08-24T20:44:01.886Z,6.80
2022-08-24T20:46:30.392Z,7.20
2022-08-24T20:48:58.971Z,6.63
2022-08-24T20:51:27.480Z,7.30
2022-08-24T20:53:56.173Z,6.65
2022-08-24T20:56:35.873Z,7.45
2022-08-24T20:59:06.640Z,7.13
2022-08-24T21:01:35.171Z,7.07
2022-08-24T21:04:05.529Z,6.75
2022-08-24T21:06:34.411Z,5.93
2022-08-24T21:09:03.993Z,6.40
2022-08-24T21:11:35.446Z,6.90
2022-08-24T21:14:06.588Z,6.50
2022-08-24T21:16:36.485Z,6.57
2022-08-24T21:19:05.295Z,7.30
2022-08-24T21:21:33.905Z,6.25
2022-08-24T21:24:05.419Z,7.15
2022-08-24T21:26:34.698Z,7.15
2022-08-24T21:29:04.488Z,6.68
2022-08-24T21:31:33.921Z,7.40
2022-08-24T21:34:21.759Z,7.22
2022-08-24T21:36:50.109Z,7.28
2022-08-24T21:39:20.876Z,7.20
2022-08-24T21:41:49.218Z,7.85
2022-08-24T21:44:17.520Z,7.75
2022-08-24T21:46:48.157Z,7.05
2022-08-24T21:49:16.488Z,7.40
2022-08-24T21:51:45.405Z,7.43
2022-08-24T21:54:13.741Z,7.95
2022-08-24T21:56:42.117Z,7.43
2022-08-24T21:59:10.641Z,7.22
2022-08-24T22:01:39.062Z,6.22
2022-08-24T22:04:09.134Z,6.65
2022-08-24T22:06:37.677Z,7.00
2022-08-24T22:09:07.394Z,7.55
2022-08-24T22:11:35.832Z,7.05
2022-08-24T22:14:04.300Z,6.78
2022-08-24T22:16:32.889Z,7.32
2022-08-24T22:19:05.484Z,7.18
2022-08-24T22:21:36.083Z,7.78
2022-08-24T22:24:04.793Z,6.22
2022-08-24T22:26:33.425Z,7.47
2022-08-24T22:29:02.127Z,7.88
2022-08-24T22:31:32.126Z,7.10
2022-08-24T22:34:01.738Z,6.60
2022-08-24T22:36:30.178Z,6.40
2022-08-24T22:38:58.649Z,7.15
2022-08-24T22:41:27.576Z,7.80
2022-08-24T22:44:15.027Z,7.10
2022-08-24T22:46:44.614Z,6.55
2022-08-24T22:49:13.414Z,7.18
2022-08-24T22:51:41.899Z,7.18
2022-08-24T22:54:10.410Z,7.85
2022-08-24T22:56:41.284Z,8.00
2022-08-24T22:59:11.322Z,7.00
2022-08-24T23:01:41.060Z,7.85
2022-08-24T23:04:11.731Z,7.85
2022-08-24T23:06:41.104Z,7.82
2022-08-24T23:09:09.625Z,7.93
2022-08-24T23:11:38.140Z,7.38
2022-08-24T23:14:07.248Z,8.48
2022-08-24T23:16:36.888Z,7.45
2022-08-24T23:19:24.463Z,7.82
2022-08-24T23:21:54.019Z,7.80
2022-08-24T23:24:22.616Z,8.23
2022-08-24T23:26:51.167Z,8.20
2022-08-24T23:29:19.727Z,7.50
2022-08-24T23:31:48.229Z,7.57
2022-08-24T23:34:16.899Z,7.40
2022-08-24T23:36:46.324Z,7.00
2022-08-24T23:39:14.944Z,7.35
2022-08-24T23:41:46.113Z,7.47
2022-08-24T23:44:16.983Z,7.28
2022-08-24T23:46:45.730Z,7.05
2022-08-24T23:49:15.366Z,7.70
2022-08-24T23:51:43.734Z,8.02
2022-08-24T23:54:12.404Z,7.38
2022-08-24T23:56:42.150Z,7.45
2022-08-24T23:59:13.021Z,7.13
